Time;durP1;ratioP1;P1;durP2;ratioP2;P2;SDS_P1;SDS_P2;PMS_P1;PMS_P2;Temp;Humidity;BMP_temperature;BMP_pressure;BME280_temperature;BME280_humidity;BME280_pressure;Samples;Min_cycle;Max_cycle;Signal;HPM_P1;HPM_P2
2023/05/15 00:00:58;;;;;;;;;;;;;;;13.72;35.73;100288.22;4942816;28;98290;-69
2023/05/15 00:03:24;;;;;;;;;;;;;;;13.70;36.00;100276.03;4967127;27;98798;-65
2023/05/15 00:05:51;;;;;;;;;;;;;;;13.69;35.90;100272.53;4949057;27;98065;-69
2023/05/15 00:08:17;;;;;;;;;;;;;;;13.68;35.78;100265.53;4931388;28;97891;-65
2023/05/15 00:10:43;;;;;;;;;;;;;;;13.69;35.62;100269.84;4949892;27;98331;-65
2023/05/15 00:13:09;;;;;;;;;;;;;;;13.69;35.80;100264.41;4951465;27;98227;-65
2023/05/15 00:15:36;;;;;;;;;;;;;;;13.69;35.93;100264.41;4945790;27;98057;-69
2023/05/15 00:18:02;;;;;;;;;;;;;;;13.69;35.90;100260.91;4959925;27;99547;-65
2023/05/15 00:20:28;;;;;;;;;;;;;;;13.67;35.73;100250.34;4943637;27;98149;-65
2023/05/15 00:22:54;;;;;;;;;;;;;;;13.67;35.91;100250.34;4935834;27;99191;-65
2023/05/15 00:25:20;;;;;;;;;;;;;;;13.69;35.57;100241.94;4942939;27;98664;-69
2023/05/15 00:27:46;;;;;;;;;;;;;;;13.70;35.99;100246.25;4947690;27;98208;-69
2023/05/15 00:30:13;;;;;;;;;;;;;;;13.68;35.63;100238.44;4928087;28;100186;-64
2023/05/15 00:32:39;;;;;;;;;;;;;;;13.69;35.89;100233.81;4944534;28;99976;-65
2023/05/15 00:35:06;;;;;;;;;;;;;;;13.65;35.94;100236.31;4948251;27;98041;-65
2023/05/15 00:37:32;;;;;;;;;;;;;;;13.62;35.82;100227.97;4948403;27;98121;-68
2023/05/15 00:39:59;;;;;;;;;;;;;;;13.59;35.65;100228.53;4949256;27;98179;-68
2023/05/15 00:42:25;;;;;;;;;;;;;;;13.55;35.75;100231.03;4950297;27;98283;-64
2023/05/15 00:44:51;;;;;;;;;;;;;;;13.51;36.00;100233.50;4962383;27;98176;-64
2023/05/15 00:47:21;;;;;;;;;;;;;;;13.49;35.96;100229.50;4950843;27;98124;-64
2023/05/15 00:49:48;;;;;;;;;;;;;;;13.47;36.21;100226.25;4947479;28;99710;-68
2023/05/15 00:52:15;;;;;;;;;;;;;;;13.42;35.88;100229.84;4945606;28;99540;-64
2023/05/15 00:54:41;;;;;;;;;;;;;;;13.37;36.05;100223.72;4944053;27;98118;-67
2023/05/15 00:57:07;;;;;;;;;;;;;;;13.30;36.09;100221.34;4937157;27;98289;-68
2023/05/15 00:59:33;;;;;;;;;;;;;;;13.27;36.09;100221.94;4947639;27;98075;-64
2023/05/15 01:02:00;;;;;;;;;;;;;;;13.25;35.95;100221.44;4965899;27;98849;-64
2023/05/15 01:04:26;;;;;;;;;;;;;;;13.22;36.03;100225.47;4946697;27;97872;-67
2023/05/15 01:06:52;;;;;;;;;;;;;;;13.20;36.08;100222.28;4942701;27;97977;-64
2023/05/15 01:09:19;;;;;;;;;;;;;;;13.19;36.21;100223.34;4946243;27;97986;-68
2023/05/15 01:11:45;;;;;;;;;;;;;;;13.17;36.13;100217.44;4943961;27;98057;-68
2023/05/15 01:14:11;;;;;;;;;;;;;;;13.18;36.08;100212.81;4948025;27;98074;-65
2023/05/15 01:16:37;;;;;;;;;;;;;;;13.19;36.14;100217.13;4948473;27;98284;-64
2023/05/15 01:19:03;;;;;;;;;;;;;;;13.17;36.07;100209.31;4943541;28;99906;-68
2023/05/15 01:21:36;;;;;;;;;;;;;;;13.12;36.16;100206.66;4942325;27;99135;-64
2023/05/15 01:24:31;;;;;;;;;;;;;;;13.07;36.25;100205.94;4980188;27;98197;-65
2023/05/15 01:27:15;;;;;;;;;;;;;;;13.02;36.13;100207.59;4981003;27;98271;-68
2023/05/15 01:29:55;;;;;;;;;;;;;;;12.97;36.19;100202.28;4959288;27;98575;-64
2023/05/15 01:32:33;;;;;;;;;;;;;;;12.94;36.23;100197.44;4960923;28;97843;-68
2023/05/15 01:35:18;;;;;;;;;;;;;;;12.91;36.01;100197.19;4929135;27;98420;-68
2023/05/15 01:37:48;;;;;;;;;;;;;;;12.87;36.26;100207.00;4960473;27;100388;-64
2023/05/15 01:40:18;;;;;;;;;;;;;;;12.81;36.12;100200.00;4976411;27;99418;-64
2023/05/15 01:42:50;;;;;;;;;;;;;;;12.74;36.28;100197.69;4947150;28;98270;-67
2023/05/15 01:45:17;;;;;;;;;;;;;;;12.70;36.23;100188.53;4963977;27;98087;-64
2023/05/15 01:47:47;;;;;;;;;;;;;;;12.69;36.16;100192.31;4943245;28;98117;-64
2023/05/15 01:50:14;;;;;;;;;;;;;;;12.65;36.30;100192.06;4946938;27;97974;-64
2023/05/15 01:52:45;;;;;;;;;;;;;;;12.64;36.41;100189.66;4947366;27;98305;-65
2023/05/15 01:55:12;;;;;;;;;;;;;;;12.69;36.19;100185.03;4965934;27;97998;-68
2023/05/15 01:57:40;;;;;;;;;;;;;;;12.75;36.15;100180.34;4935697;27;99174;-67
2023/05/15 02:00:07;;;;;;;;;;;;;;;12.80;36.22;100177.56;4962267;27;98159;-67
2023/05/15 02:02:33;;;;;;;;;;;;;;;12.85;36.16;100177.53;4927847;27;97884;-67
2023/05/15 02:04:59;;;;;;;;;;;;;;;12.85;36.16;100169.41;4945518;27;98023;-64
2023/05/15 02:07:26;;;;;;;;;;;;;;;12.85;36.26;100165.88;4942385;28;100672;-67
2023/05/15 02:09:52;;;;;;;;;;;;;;;12.86;36.37;100157.50;4942782;27;99575;-64
2023/05/15 02:12:19;;;;;;;;;;;;;;;12.87;36.26;100155.59;4942900;27;98261;-64
2023/05/15 02:14:47;;;;;;;;;;;;;;;12.88;36.43;100157.19;4942092;27;98992;-67
2023/05/15 02:17:14;;;;;;;;;;;;;;;12.88;36.36;100155.28;4957348;27;98150;-64
2023/05/15 02:19:40;;;;;;;;;;;;;;;12.90;36.45;100155.03;4963261;27;97936;-68
2023/05/15 02:22:06;;;;;;;;;;;;;;;12.91;36.23;100151.22;4946338;27;98110;-64
2023/05/15 02:24:33;;;;;;;;;;;;;;;12.88;36.28;100155.28;4947484;27;98103;-64
2023/05/15 02:27:04;;;;;;;;;;;;;;;12.87;36.10;100145.56;4952731;27;98535;-67
2023/05/15 02:29:48;;;;;;;;;;;;;;;12.85;36.67;100149.66;4943598;27;100008;-64
2023/05/15 02:32:29;;;;;;;;;;;;;;;12.82;36.52;100150.25;4978382;27;98597;-64
2023/05/15 02:35:11;;;;;;;;;;;;;;;12.80;36.40;100149.72;4963280;27;97953;-68
2023/05/15 02:37:38;;;;;;;;;;;;;;;12.75;36.30;100140.56;4959109;27;98201;-64
2023/05/15 02:40:09;;;;;;;;;;;;;;;12.71;36.47;100142.25;4942408;27;98562;-64
2023/05/15 02:42:35;;;;;;;;;;;;;;;12.66;36.43;100142.31;4947798;27;97838;-64
2023/05/15 02:45:01;;;;;;;;;;;;;;;12.64;36.49;100143.69;4930787;27;98010;-64
2023/05/15 02:47:27;;;;;;;;;;;;;;;12.59;36.52;100136.47;4944951;27;98150;-68
2023/05/15 02:49:53;;;;;;;;;;;;;;;12.56;36.45;100136.22;4942065;27;100087;-68
2023/05/15 02:52:21;;;;;;;;;;;;;;;12.53;36.48;100124.88;4944629;28;98171;-68
2023/05/15 02:54:47;;;;;;;;;;;;;;;12.53;36.42;100129.47;4941934;28;97976;-64
2023/05/15 02:57:13;;;;;;;;;;;;;;;12.53;36.48;100121.38;4940872;27;98032;-65
2023/05/15 02:59:40;;;;;;;;;;;;;;;12.50;36.45;100127.38;4941720;28;100030;-68
2023/05/15 03:02:06;;;;;;;;;;;;;;;12.46;36.49;100124.44;4942576;27;98014;-64
2023/05/15 03:04:32;;;;;;;;;;;;;;;12.43;36.72;100125.00;4948068;27;98111;-68
2023/05/15 03:06:58;;;;;;;;;;;;;;;12.41;36.54;100123.69;4946811;28;97956;-68
2023/05/15 03:09:25;;;;;;;;;;;;;;;12.37;36.51;100122.66;4943537;27;98313;-69
2023/05/15 03:11:51;;;;;;;;;;;;;;;12.34;36.66;100128.63;4960432;27;98421;-65
2023/05/15 03:14:17;;;;;;;;;;;;;;;12.29;36.67;100140.28;4942813;27;98154;-69
2023/05/15 03:16:43;;;;;;;;;;;;;;;12.23;36.49;100141.44;4945009;27;98103;-64
2023/05/15 03:19:10;;;;;;;;;;;;;;;12.15;36.45;100134.78;4932119;27;99313;-68
2023/05/15 03:21:36;;;;;;;;;;;;;;;12.08;36.59;100139.69;4907580;28;99184;-64
2023/05/15 03:24:02;;;;;;;;;;;;;;;12.06;36.79;100141.06;4957483;27;97925;-65
2023/05/15 03:26:28;;;;;;;;;;;;;;;12.03;36.50;100131.66;4945257;27;98330;-65
2023/05/15 03:28:56;;;;;;;;;;;;;;;12.02;36.64;100136.25;4941546;28;98343;-69
2023/05/15 03:31:22;;;;;;;;;;;;;;;12.01;36.70;100131.91;4945854;28;99548;-69
2023/05/15 03:33:50;;;;;;;;;;;;;;;12.02;36.60;100132.72;4945116;27;98001;-69
2023/05/15 03:36:16;;;;;;;;;;;;;;;12.03;36.59;100129.75;4947475;27;101145;-68
2023/05/15 03:38:43;;;;;;;;;;;;;;;12.04;36.70;100135.97;4941019;27;98231;-68
2023/05/15 03:41:09;;;;;;;;;;;;;;;12.04;36.83;100125.16;4977001;27;98115;-68
2023/05/15 03:43:36;;;;;;;;;;;;;;;12.09;36.66;100121.59;4942656;28;98499;-68
2023/05/15 03:46:02;;;;;;;;;;;;;;;12.14;36.58;100124.22;4944646;28;99283;-68
2023/05/15 03:48:28;;;;;;;;;;;;;;;12.16;36.55;100127.47;4940945;27;98011;-64
2023/05/15 03:50:55;;;;;;;;;;;;;;;12.18;36.42;100119.88;4941496;27;98734;-69
2023/05/15 03:53:21;;;;;;;;;;;;;;;12.20;36.76;100118.50;4948422;27;98108;-68
2023/05/15 03:55:47;;;;;;;;;;;;;;;12.25;36.62;100110.31;4961653;27;98051;-68
2023/05/15 03:58:13;;;;;;;;;;;;;;;12.32;36.54;100111.91;4975695;27;123500;-65
2023/05/15 04:00:39;;;;;;;;;;;;;;;12.36;36.49;100113.72;4960344;27;97961;-69
2023/05/15 04:03:06;;;;;;;;;;;;;;;12.39;36.62;100109.66;4946068;27;98062;-68
2023/05/15 04:05:31;;;;;;;;;;;;;;;12.44;36.70;100106.88;4936885;27;102839;-65
2023/05/15 04:07:58;;;;;;;;;;;;;;;12.52;36.49;100111.66;4961422;27;98102;-68
2023/05/15 04:10:24;;;;;;;;;;;;;;;12.57;36.48;100098.06;4940364;28;98504;-65
2023/05/15 04:12:51;;;;;;;;;;;;;;;12.63;36.41;100101.53;4945658;27;98241;-64
2023/05/15 04:15:22;;;;;;;;;;;;;;;12.67;36.43;100097.97;4941937;27;98568;-68
2023/05/15 04:17:49;;;;;;;;;;;;;;;12.71;36.57;100092.78;4943997;28;98127;-64
2023/05/15 04:20:17;;;;;;;;;;;;;;;12.76;36.50;100084.59;4940244;27;98168;-68
2023/05/15 04:22:43;;;;;;;;;;;;;;;12.82;36.54;100082.63;4941224;27;98019;-64
2023/05/15 04:25:10;;;;;;;;;;;;;;;12.88;36.34;100078.75;4939965;27;98116;-64
2023/05/15 04:27:37;;;;;;;;;;;;;;;12.91;36.72;100078.19;4929733;27;98295;-68
2023/05/15 04:30:06;;;;;;;;;;;;;;;12.94;36.40;100073.00;4946299;28;98489;-64
2023/05/15 04:32:33;;;;;;;;;;;;;;;12.98;36.68;100078.63;4963177;27;98377;-64
2023/05/15 04:35:09;;;;;;;;;;;;;;;13.04;36.50;100085.56;4949552;27;98154;-68
2023/05/15 04:37:38;;;;;;;;;;;;;;;13.10;36.34;100076.28;4945413;27;97957;-64
2023/05/15 04:40:06;;;;;;;;;;;;;;;13.16;36.35;100072.38;4979589;27;98352;-68
2023/05/15 04:42:33;;;;;;;;;;;;;;;13.24;36.18;100070.94;4965307;27;98049;-68
2023/05/15 04:44:59;;;;;;;;;;;;;;;13.30;36.54;100063.56;4944154;27;98725;-64
2023/05/15 04:47:25;;;;;;;;;;;;;;;13.35;36.29;100061.56;4943115;28;98003;-64
2023/05/15 04:49:51;;;;;;;;;;;;;;;13.41;36.23;100065.00;4959033;28;99641;-64
2023/05/15 04:52:18;;;;;;;;;;;;;;;13.46;36.23;100068.44;4939926;28;98254;-69
2023/05/15 04:54:45;;;;;;;;;;;;;;;13.50;36.08;100072.16;4931272;27;98277;-64
2023/05/15 04:57:12;;;;;;;;;;;;;;;13.55;36.53;100068.56;4959401;27;98206;-64
2023/05/15 04:59:38;;;;;;;;;;;;;;;13.61;36.19;100066.59;4942859;27;98209;-68
2023/05/15 05:02:04;;;;;;;;;;;;;;;13.64;36.51;100061.38;4940743;27;98495;-68
2023/05/15 05:04:30;;;;;;;;;;;;;;;13.68;36.45;100062.38;4946878;27;99803;-64
2023/05/15 05:06:57;;;;;;;;;;;;;;;13.73;36.33;100058.78;4950240;28;98108;-64
2023/05/15 05:09:23;;;;;;;;;;;;;;;13.78;36.11;100061.38;4941046;27;99272;-68
2023/05/15 05:11:49;;;;;;;;;;;;;;;13.84;36.21;100059.41;4949163;27;98595;-64
2023/05/15 05:14:15;;;;;;;;;;;;;;;13.90;36.38;100060.91;4948079;27;98762;-68
2023/05/15 05:16:44;;;;;;;;;;;;;;;13.94;36.53;100057.31;4929583;27;98453;-66
2023/05/15 05:19:11;;;;;;;;;;;;;;;13.97;36.48;100051.28;4962730;28;98168;-68
2023/05/15 05:21:37;;;;;;;;;;;;;;;14.05;36.38;100054.41;4927072;27;98202;-64
2023/05/15 05:24:03;;;;;;;;;;;;;;;14.10;36.41;100057.81;4946142;27;98469;-68
2023/05/15 05:26:29;;;;;;;;;;;;;;;14.16;36.41;100059.34;4959955;28;98351;-68
2023/05/15 05:28:55;;;;;;;;;;;;;;;14.23;36.17;100053.53;4942504;27;97876;-65
2023/05/15 05:31:21;;;;;;;;;;;;;;;14.27;36.04;100049.09;4947112;27;98245;-64
2023/05/15 05:33:51;;;;;;;;;;;;;;;14.33;36.15;100050.59;4945268;28;98165;-68
2023/05/15 05:36:17;;;;;;;;;;;;;;;14.38;36.11;100044.25;4945068;27;98194;-68
2023/05/15 05:38:43;;;;;;;;;;;;;;;14.42;36.13;100042.53;4929753;27;98093;-64
2023/05/15 05:41:09;;;;;;;;;;;;;;;14.48;36.04;100044.06;4964041;27;98347;-68
2023/05/15 05:43:36;;;;;;;;;;;;;;;14.54;36.31;100033.94;4944443;27;98111;-68
2023/05/15 05:46:02;;;;;;;;;;;;;;;14.60;36.34;100032.72;4946274;27;98948;-64
2023/05/15 05:48:29;;;;;;;;;;;;;;;14.64;36.09;100033.72;4941746;28;98077;-64
2023/05/15 05:50:55;;;;;;;;;;;;;;;14.67;36.16;100025.78;4949302;27;97920;-68
2023/05/15 05:53:21;;;;;;;;;;;;;;;14.70;36.42;100022.47;4948523;27;98165;-67
2023/05/15 05:55:48;;;;;;;;;;;;;;;14.76;35.97;100025.06;4965001;28;98630;-67
2023/05/15 05:58:16;;;;;;;;;;;;;;;14.82;35.85;100021.13;4943902;27;99508;-69
2023/05/15 06:00:42;;;;;;;;;;;;;;;14.87;36.30;100015.56;4944937;27;97933;-68
2023/05/15 06:03:08;;;;;;;;;;;;;;;14.93;36.21;100004.31;4943130;28;98382;-68
2023/05/15 06:05:36;;;;;;;;;;;;;;;15.00;36.25;100009.28;4963719;27;97947;-68
2023/05/15 06:08:03;;;;;;;;;;;;;;;15.09;36.34;100009.34;4934933;27;98294;-68
2023/05/15 06:10:30;;;;;;;;;;;;;;;15.16;36.22;100005.09;4949304;27;98101;-69
2023/05/15 06:12:56;;;;;;;;;;;;;;;15.23;36.24;100004.66;4945548;27;97998;-68
2023/05/15 06:15:22;;;;;;;;;;;;;;;15.27;35.80;99997.50;4947114;27;98018;-68
2023/05/15 06:17:48;;;;;;;;;;;;;;;15.32;35.77;99996.56;4939125;28;97974;-64
2023/05/15 06:20:15;;;;;;;;;;;;;;;15.35;35.89;99994.03;4943482;27;99127;-68
2023/05/15 06:22:41;;;;;;;;;;;;;;;15.39;36.19;99991.50;4942856;27;100082;-64
2023/05/15 06:25:12;;;;;;;;;;;;;;;15.44;36.13;99984.06;4947794;27;98173;-68
2023/05/15 06:27:41;;;;;;;;;;;;;;;15.51;36.04;99978.16;4946635;27;100057;-64
2023/05/15 06:30:08;;;;;;;;;;;;;;;15.57;35.95;99971.50;4944008;28;98327;-68
2023/05/15 06:32:34;;;;;;;;;;;;;;;15.60;36.04;99967.31;4975504;27;98392;-65
2023/05/15 06:35:02;;;;;;;;;;;;;;;15.61;35.98;99968.94;4949540;27;98146;-68
2023/05/15 06:37:28;;;;;;;;;;;;;;;15.61;36.04;99968.94;4946225;27;97989;-69
2023/05/15 06:39:55;;;;;;;;;;;;;;;15.62;36.12;99968.63;4943018;27;98321;-64
2023/05/15 06:42:21;;;;;;;;;;;;;;;15.65;36.37;99964.53;4946319;27;98442;-68
2023/05/15 06:44:48;;;;;;;;;;;;;;;15.64;36.16;99963.69;4950116;28;99981;-64
2023/05/15 06:47:15;;;;;;;;;;;;;;;15.63;36.04;99964.78;4941698;27;99364;-64
2023/05/15 06:49:41;;;;;;;;;;;;;;;15.64;36.42;99960.16;4940549;28;97960;-68
2023/05/15 06:52:08;;;;;;;;;;;;;;;15.65;36.24;99964.53;4942321;28;98235;-64
2023/05/15 06:54:34;;;;;;;;;;;;;;;15.67;36.19;99963.09;4961783;27;98129;-68
2023/05/15 06:57:00;;;;;;;;;;;;;;;15.67;36.03;99960.38;4950029;27;97977;-64
2023/05/15 06:59:27;;;;;;;;;;;;;;;15.67;36.14;99959.56;4960916;27;98813;-64
2023/05/15 07:01:54;;;;;;;;;;;;;;;15.65;36.21;99949.03;4942377;28;98210;-64
2023/05/15 07:04:21;;;;;;;;;;;;;;;15.65;36.31;99957.19;4957186;28;97985;-64
2023/05/15 07:06:48;;;;;;;;;;;;;;;15.68;36.16;99950.31;4938794;27;98257;-68
2023/05/15 07:09:14;;;;;;;;;;;;;;;15.68;36.25;99953.84;4945861;27;98340;-65
2023/05/15 07:11:41;;;;;;;;;;;;;;;15.67;36.07;99952.22;4958395;27;98455;-64
2023/05/15 07:14:07;;;;;;;;;;;;;;;15.67;36.39;99956.84;4961734;28;99692;-65
2023/05/15 07:16:33;;;;;;;;;;;;;;;15.68;36.58;99953.03;4942190;27;97981;-68
2023/05/15 07:19:00;;;;;;;;;;;;;;;15.71;36.28;99953.19;4924683;27;99328;-68
2023/05/15 07:21:26;;;;;;;;;;;;;;;15.77;36.26;99953.06;4946696;27;98218;-69
2023/05/15 07:23:52;;;;;;;;;;;;;;;15.83;36.16;99949.06;4941587;27;98022;-69
2023/05/15 07:26:19;;;;;;;;;;;;;;;15.91;36.38;99948.31;4941012;28;98182;-64
2023/05/15 07:28:46;;;;;;;;;;;;;;;16.00;36.09;99938.28;4948875;27;98089;-65
2023/05/15 07:31:12;;;;;;;;;;;;;;;16.14;36.16;99944.38;4941627;27;99204;-64
2023/05/15 07:33:38;;;;;;;;;;;;;;;16.31;36.03;99938.19;4935162;27;98546;-68
2023/05/15 07:36:05;;;;;;;;;;;;;;;16.48;35.77;99934.66;4947191;27;98268;-64
2023/05/15 07:38:31;;;;;;;;;;;;;;;16.63;35.70;99933.41;4943118;27;98004;-64
2023/05/15 07:40:58;;;;;;;;;;;;;;;16.73;35.59;99938.53;4963403;27;97964;-68
2023/05/15 07:43:24;;;;;;;;;;;;;;;16.78;35.76;99941.09;4930633;27;98100;-68
2023/05/15 07:45:51;;;;;;;;;;;;;;;16.83;35.64;99951.81;4961058;27;98101;-68
2023/05/15 07:48:18;;;;;;;;;;;;;;;16.85;35.81;99952.28;4939454;27;98471;-64
2023/05/15 07:50:49;;;;;;;;;;;;;;;16.88;35.79;99959.81;4945692;27;99341;-68
2023/05/15 07:53:16;;;;;;;;;;;;;;;16.92;35.87;99955.31;4946324;27;98628;-68
2023/05/15 07:55:43;;;;;;;;;;;;;;;16.99;35.68;99951.34;4946501;27;98144;-68
2023/05/15 07:58:10;;;;;;;;;;;;;;;17.09;35.77;99942.81;4958426;27;98175;-68
2023/05/15 08:00:36;;;;;;;;;;;;;;;17.22;35.66;99941.03;4941245;28;99648;-64
2023/05/15 08:03:03;;;;;;;;;;;;;;;17.25;35.64;99943.09;4947690;27;99474;-64
2023/05/15 08:05:30;;;;;;;;;;;;;;;17.23;35.83;99942.63;4933492;28;99578;-67
2023/05/15 08:07:56;;;;;;;;;;;;;;;17.19;35.91;99942.47;4964481;27;97982;-68
2023/05/15 08:10:22;;;;;;;;;;;;;;;17.18;35.74;99941.69;4949019;27;98168;-65
2023/05/15 08:12:49;;;;;;;;;;;;;;;17.19;35.76;99939.75;4953013;27;98703;-64
2023/05/15 08:15:16;;;;;;;;;;;;;;;17.23;35.83;99942.63;4951096;27;98163;-66
2023/05/15 08:17:43;;;;;;;;;;;;;;;17.27;35.95;99938.16;4951082;27;98430;-64
2023/05/15 08:20:10;;;;;;;;;;;;;;;17.35;35.81;99929.16;4952622;27;98019;-64
2023/05/15 08:22:36;;;;;;;;;;;;;;;17.49;35.70;99931.66;4945407;27;98329;-68
2023/05/15 08:25:02;;;;;;;;;;;;;;;17.63;35.73;99927.59;4950482;27;98127;-68
2023/05/15 08:27:29;;;;;;;;;;;;;;;17.75;35.54;99926.13;4950427;27;98619;-68
2023/05/15 08:29:55;;;;;;;;;;;;;;;17.84;35.68;99926.88;4947645;27;98024;-64
2023/05/15 08:32:21;;;;;;;;;;;;;;;17.93;35.60;99919.47;4950733;27;98173;-65
2023/05/15 08:34:47;;;;;;;;;;;;;;;18.03;35.50;99912.81;4947714;27;98052;-68
2023/05/15 08:37:14;;;;;;;;;;;;;;;18.11;35.53;99910.03;4963828;27;97929;-68
2023/05/15 08:39:41;;;;;;;;;;;;;;;18.22;35.43;99913.19;4947559;27;98337;-64
2023/05/15 08:42:20;;;;;;;;;;;;;;;18.35;35.41;99914.03;4978452;27;99650;-64
2023/05/15 08:44:46;;;;;;;;;;;;;;;18.50;35.18;99912.66;4977913;27;98430;-68
2023/05/15 08:47:14;;;;;;;;;;;;;;;18.65;35.28;99912.06;4948597;27;97960;-64
2023/05/15 08:50:03;;;;;;;;;;;;;;;18.84;35.06;99906.13;4963779;28;98010;-65
2023/05/15 08:52:29;;;;;;;;;;;;;;;19.24;34.88;99909.09;4964820;27;98327;-68
2023/05/15 08:54:55;;;;;;;;;;;;;;;20.34;33.90;99900.88;4966332;27;99575;-64
2023/05/15 08:57:21;;;;;;;;;;;;;;;20.75;33.67;99898.13;4949353;27;98220;-64
2023/05/15 08:59:48;;;;;;;;;;;;;;;20.82;33.84;99912.81;4944985;27;98569;-68
2023/05/15 09:02:15;;;;;;;;;;;;;;;21.15;33.74;99908.22;4947765;27;97984;-64
2023/05/15 09:04:41;;;;;;;;;;;;;;;21.47;33.61;99896.16;4978967;27;97986;-67
2023/05/15 09:07:07;;;;;;;;;;;;;;;22.00;33.26;99899.34;4955158;27;98092;-67
2023/05/15 09:09:34;;;;;;;;;;;;;;;22.79;32.78;99885.34;4930341;27;98078;-64
2023/05/15 09:12:01;;;;;;;;;;;;;;;24.06;31.61;99889.06;4946092;27;98106;-65
2023/05/15 09:14:27;;;;;;;;;;;;;;;23.07;33.10;99897.25;4964065;27;98494;-68
2023/05/15 09:16:53;;;;;;;;;;;;;;;22.75;33.51;99891.91;4964555;27;98238;-64
2023/05/15 09:19:21;;;;;;;;;;;;;;;22.48;33.96;99885.53;4927941;27;99422;-64
2023/05/15 09:21:48;;;;;;;;;;;;;;;22.21;34.23;99890.06;4942716;28;98589;-68
2023/05/15 09:24:23;;;;;;;;;;;;;;;21.95;34.46;99885.13;4967683;28;99791;-67
2023/05/15 09:27:06;;;;;;;;;;;;;;;21.67;34.56;99883.31;4949271;28;98949;-64
2023/05/15 09:29:33;;;;;;;;;;;;;;;21.42;34.84;99884.63;4964184;27;97947;-64
2023/05/15 09:32:04;;;;;;;;;;;;;;;21.18;34.92;99888.31;4948165;28;98098;-67
2023/05/15 09:34:34;;;;;;;;;;;;;;;20.96;35.08;99881.50;4948776;27;98106;-64
2023/05/15 09:37:02;;;;;;;;;;;;;;;20.83;35.17;99886.25;4943845;27;98057;-67
2023/05/15 09:39:28;;;;;;;;;;;;;;;20.76;35.18;99884.09;4962433;27;98154;-68
2023/05/15 09:42:04;;;;;;;;;;;;;;;20.84;35.07;99885.09;4941461;27;98425;-68
2023/05/15 09:44:31;;;;;;;;;;;;;;;21.11;34.79;99880.72;4961065;27;98201;-68
2023/05/15 09:46:57;;;;;;;;;;;;;;;21.72;34.24;99877.56;4946946;27;97971;-64
2023/05/15 09:49:24;;;;;;;;;;;;;;;21.96;34.02;99878.47;4950617;27;98226;-67
2023/05/15 09:51:50;;;;;;;;;;;;;;;23.62;32.60;99876.59;4948760;27;99558;-64
2023/05/15 09:54:17;;;;;;;;;;;;;;;25.02;31.76;99870.94;4947100;27;98103;-64
2023/05/15 09:56:44;;;;;;;;;;;;;;;25.77;31.45;99873.56;4969225;27;98209;-64
2023/05/15 09:59:18;;;;;;;;;;;;;;;25.74;31.66;99874.31;4962811;27;98079;-64
2023/05/15 10:01:44;;;;;;;;;;;;;;;26.46;31.25;99875.56;4949774;27;99695;-67
2023/05/15 10:04:11;;;;;;;;;;;;;;;25.83;32.26;99869.31;4945090;27;98163;-68
2023/05/15 10:06:45;;;;;;;;;;;;;;;25.69;32.69;99869.94;4944528;27;98226;-66
2023/05/15 10:09:13;;;;;;;;;;;;;;;25.89;32.60;99873.25;4959282;27;98843;-67
2023/05/15 10:11:42;;;;;;;;;;;;;;;25.91;32.49;99870.94;4945731;27;98000;-67
2023/05/15 10:14:09;;;;;;;;;;;;;;;26.99;31.69;99867.41;4942015;27;98221;-64
2023/05/15 10:16:37;;;;;;;;;;;;;;;27.32;31.52;99862.75;4958036;27;98146;-67
2023/05/15 10:19:07;;;;;;;;;;;;;;;26.79;32.21;99864.22;4959711;28;119921;-67
2023/05/15 10:21:34;;;;;;;;;;;;;;;26.18;33.08;99860.44;4979144;27;98286;-64
2023/05/15 10:24:01;;;;;;;;;;;;;;;25.58;33.58;99863.56;4939105;27;98047;-64
2023/05/15 10:26:32;;;;;;;;;;;;;;;25.05;33.68;99858.38;4947760;27;98008;-67
2023/05/15 10:28:58;;;;;;;;;;;;;;;24.56;34.37;99860.22;4964643;27;98270;-64
2023/05/15 10:31:25;;;;;;;;;;;;;;;24.09;34.72;99853.34;4961939;28;97798;-64
2023/05/15 10:33:51;;;;;;;;;;;;;;;23.69;34.93;99853.94;4962608;27;98244;-67
2023/05/15 10:36:18;;;;;;;;;;;;;;;23.39;34.76;99851.88;4943814;27;98119;-67
2023/05/15 10:38:45;;;;;;;;;;;;;;;23.15;34.75;99849.53;4963815;27;98676;-65
2023/05/15 10:41:11;;;;;;;;;;;;;;;22.88;35.11;99848.63;4942319;27;97998;-67
2023/05/15 10:43:37;;;;;;;;;;;;;;;22.69;35.06;99850.22;4947338;27;98036;-68
2023/05/15 10:46:04;;;;;;;;;;;;;;;22.65;34.99;99851.31;4945916;27;98028;-65
2023/05/15 10:48:31;;;;;;;;;;;;;;;22.60;34.95;99841.44;4942450;28;99492;-65
2023/05/15 10:51:00;;;;;;;;;;;;;;;22.60;34.75;99837.88;4948433;27;98237;-65
2023/05/15 10:53:26;;;;;;;;;;;;;;;22.65;34.79;99838.38;4952468;27;98438;-68
2023/05/15 10:55:53;;;;;;;;;;;;;;;22.60;34.83;99835.94;4963079;28;97985;-65
2023/05/15 10:58:22;;;;;;;;;;;;;;;22.52;34.62;99837.75;4944362;28;98042;-65
2023/05/15 11:00:49;;;;;;;;;;;;;;;22.54;34.79;99840.13;4958981;27;100020;-65
2023/05/15 11:03:15;;;;;;;;;;;;;;;22.52;34.70;99836.97;4960331;27;99542;-65
2023/05/15 11:06:07;;;;;;;;;;;;;;;22.44;34.64;99833.28;4958560;27;97955;-65
2023/05/15 11:08:37;;;;;;;;;;;;;;;22.35;34.73;99831.91;4963794;27;99421;-68
2023/05/15 11:11:03;;;;;;;;;;;;;;;22.30;34.68;99822.00;4939174;28;97996;-68
2023/05/15 11:14:14;;;;;;;;;;;;;;;22.25;34.74;99820.34;4964666;27;97996;-65
2023/05/15 11:16:53;;;;;;;;;;;;;;;22.16;34.97;99819.75;4955048;27;98010;-64
2023/05/15 11:19:48;;;;;;;;;;;;;;;22.03;34.81;99812.78;4963371;28;98338;-67
2023/05/15 11:22:21;;;;;;;;;;;;;;;21.86;34.90;99824.19;4949089;27;98496;-68
2023/05/15 11:25:08;;;;;;;;;;;;;;;21.75;35.04;99815.72;4960944;27;98260;-65
2023/05/15 11:27:41;;;;;;;;;;;;;;;21.67;34.99;99819.44;4962925;27;99619;-67
2023/05/15 11:30:19;;;;;;;;;;;;;;;21.61;34.92;99810.69;4947908;27;98082;-65
2023/05/15 11:33:03;;;;;;;;;;;;;;;21.64;34.83;99812.72;4962576;27;98095;-68
2023/05/15 11:35:42;;;;;;;;;;;;;;;21.74;34.75;99803.97;4949676;27;98037;-64
2023/05/15 11:38:19;;;;;;;;;;;;;;;21.90;34.63;99803.13;4980006;27;98549;-68
2023/05/15 11:40:55;;;;;;;;;;;;;;;22.06;34.55;99806.59;4966748;27;98600;-65
2023/05/15 11:43:23;;;;;;;;;;;;;;;22.14;34.43;99802.88;4967744;27;98093;-65
2023/05/15 11:46:07;;;;;;;;;;;;;;;22.15;34.40;99804.44;4931560;27;98084;-65
2023/05/15 11:48:39;;;;;;;;;;;;;;;22.08;34.56;99803.47;4961394;27;98095;-67
2023/05/15 11:51:10;;;;;;;;;;;;;;;22.06;34.42;99806.59;4965574;27;98135;-68
2023/05/15 11:53:36;;;;;;;;;;;;;;;22.51;33.97;99796.91;4944401;27;99454;-65
2023/05/15 11:56:02;;;;;;;;;;;;;;;22.72;33.75;99793.78;4944715;28;100084;-67
2023/05/15 11:58:28;;;;;;;;;;;;;;;22.87;33.56;99801.13;4944342;28;98099;-68
2023/05/15 12:00:56;;;;;;;;;;;;;;;22.91;33.81;99793.78;4965598;27;99435;-65
2023/05/15 12:03:32;;;;;;;;;;;;;;;22.94;33.75;99793.00;4946447;27;99107;-65
2023/05/15 12:06:00;;;;;;;;;;;;;;;23.00;33.89;99791.56;4981604;27;98096;-65
2023/05/15 12:08:32;;;;;;;;;;;;;;;23.08;33.92;99784.22;4949013;27;99751;-65
2023/05/15 12:10:59;;;;;;;;;;;;;;;23.34;33.69;99783.44;4945634;27;98000;-68
2023/05/15 12:13:25;;;;;;;;;;;;;;;24.35;32.70;99791.09;4962113;27;98048;-65
2023/05/15 12:15:52;;;;;;;;;;;;;;;24.80;32.35;99783.72;4944681;27;98007;-65
2023/05/15 12:18:19;;;;;;;;;;;;;;;24.92;32.55;99783.44;4950648;28;98042;-65
2023/05/15 12:20:45;;;;;;;;;;;;;;;24.79;32.72;99784.88;4927823;27;98034;-65
2023/05/15 12:23:14;;;;;;;;;;;;;;;25.25;32.47;99779.00;4941866;27;98038;-65
2023/05/15 12:25:40;;;;;;;;;;;;;;;25.13;32.54;99772.63;4961786;27;98059;-65
2023/05/15 12:28:07;;;;;;;;;;;;;;;25.53;32.45;99761.84;4947798;27;98900;-64
2023/05/15 12:30:33;;;;;;;;;;;;;;;25.45;32.71;99767.31;4965994;27;97969;-67
2023/05/15 12:33:04;;;;;;;;;;;;;;;25.67;32.41;99759.97;4949576;28;98181;-65
2023/05/15 12:35:33;;;;;;;;;;;;;;;25.77;32.41;99752.91;4965351;28;98084;-65
2023/05/15 12:38:03;;;;;;;;;;;;;;;26.37;32.23;99757.09;4964498;27;97836;-67
2023/05/15 12:40:32;;;;;;;;;;;;;;;26.28;32.34;99753.94;4964007;27;98235;-64
2023/05/15 12:42:58;;;;;;;;;;;;;;;25.87;32.75;99754.19;4957639;27;100627;-65
2023/05/15 12:45:25;;;;;;;;;;;;;;;25.48;33.28;99742.91;4945638;28;98070;-65